LiveATC.Net - Listen to live air traffic control over the Internet! Contact for advertising information

ICAO: YSCB  IATA: CBR   Airport: Canberra International Airport
City: Canberra   State/Province: Australian Capital Territory
Country: Australia   Continent: Oceania
YSCB METAR Weather: YSCB 100800Z AUTO 33001KT 9999 // NCD 20/08 Q1025
YSCB Flight Activity (FlightAware)
YSCB Gnd/Twr/App/Center
Feed Status: UP   Listeners: 2
Listen right in your browser - requires Flash (in browser, requires Flash)
Click here to listen with your own player (launches your MP3 player)
YSCB Gnd/Twr/App/Center Audio Archives
Canberra Approach124.500
Canberra Ground121.700
Canberra Tower118.700
Melbourne Center125.900


Unauthorized use prohibited. See Terms of Service

Find LiveATC Audio Streams

Airport/ARTCC Code

(e.g., 124.400, 128.75)
Site-wide search

Browse LiveATC Feeds
LiveATC Coverage Map
Top 50 LiveATC Feeds
Bad Weather Areas

Offer a LiveATC Feed
Press Inquiries

LiveATC on iPhone
LiveATC on Android

Windows Phone
Windows 8/10

LiveATC Mobile
(Mobile browser)

ATC Audio Archives
Interesting Recordings

LiveATC Forums

Home Page
Make a Donation
LiveATC Bookstore

Terms of Use
Privacy Policy

ATC/Radar Sites
U.S. ARTCC Freqs
Canadian Air Freqs


FAA Airport Status
Nat'l Airspace Status
Arrival Demand Charts

Server Software By:

Please make a donation to help us keep growing!